sensor_id;sensor_type;location;lat;lon;timestamp;pressure;altitude;pressure_sealevel;temperature;humidity
41513;BME280;27244;59.940;30.280;2023-07-29T00:01:20;100122.41;;;24.27;48.42
41513;BME280;27244;59.940;30.280;2023-07-29T00:03:47;100118.03;;;24.26;48.44
41513;BME280;27244;59.940;30.280;2023-07-29T00:06:14;100115.66;;;24.24;48.26
41513;BME280;27244;59.940;30.280;2023-07-29T00:08:41;100118.97;;;24.23;48.13
41513;BME280;27244;59.940;30.280;2023-07-29T00:11:09;100123.97;;;24.28;48.27
41513;BME280;27244;59.940;30.280;2023-07-29T00:13:37;100130.09;;;24.26;48.26
41513;BME280;27244;59.940;30.280;2023-07-29T00:16:04;100125.69;;;24.25;48.15
41513;BME280;27244;59.940;30.280;2023-07-29T00:18:31;100128.50;;;24.25;47.88
41513;BME280;27244;59.940;30.280;2023-07-29T00:20:59;100120.06;;;24.25;47.96
41513;BME280;27244;59.940;30.280;2023-07-29T00:23:26;100130.53;;;24.25;48.18
41513;BME280;27244;59.940;30.280;2023-07-29T00:25:53;100126.16;;;24.24;48.20
41513;BME280;27244;59.940;30.280;2023-07-29T00:28:21;100127.28;;;24.26;48.00
41513;BME280;27244;59.940;30.280;2023-07-29T00:30:48;100133.34;;;24.25;48.46
41513;BME280;27244;59.940;30.280;2023-07-29T00:33:15;100132.13;;;24.26;48.26
41513;BME280;27244;59.940;30.280;2023-07-29T00:35:43;100119.25;;;24.25;48.24
41513;BME280;27244;59.940;30.280;2023-07-29T00:38:10;100121.28;;;24.24;48.07
41513;BME280;27244;59.940;30.280;2023-07-29T00:40:37;100117.69;;;24.24;48.33
41513;BME280;27244;59.940;30.280;2023-07-29T00:43:04;100124.59;;;24.23;48.26
41513;BME280;27244;59.940;30.280;2023-07-29T00:45:36;100136.50;;;24.27;48.25
41513;BME280;27244;59.940;30.280;2023-07-29T00:48:03;100140.22;;;24.24;48.19
41513;BME280;27244;59.940;30.280;2023-07-29T00:50:32;100140.22;;;24.24;48.08
41513;BME280;27244;59.940;30.280;2023-07-29T00:53:00;100143.06;;;24.24;47.92
41513;BME280;27244;59.940;30.280;2023-07-29T00:55:28;100135.88;;;24.23;48.22
41513;BME280;27244;59.940;30.280;2023-07-29T00:57:56;100137.56;;;24.20;47.19
41513;BME280;27244;59.940;30.280;2023-07-29T01:00:25;100135.53;;;24.21;47.41
41513;BME280;27244;59.940;30.280;2023-07-29T01:02:53;100135.88;;;24.23;47.18
41513;BME280;27244;59.940;30.280;2023-07-29T01:05:28;100139.00;;;24.25;47.07
41513;BME280;27244;59.940;30.280;2023-07-29T01:08:02;100141.50;;;24.23;47.31
41513;BME280;27244;59.940;30.280;2023-07-29T01:10:39;100143.41;;;24.26;47.46
41513;BME280;27244;59.940;30.280;2023-07-29T01:13:23;100128.25;;;24.11;47.00
41513;BME280;27244;59.940;30.280;2023-07-29T01:15:54;100163.25;;;24.22;47.45
41513;BME280;27244;59.940;30.280;2023-07-29T01:18:26;100153.56;;;24.23;47.09
41513;BME280;27244;59.940;30.280;2023-07-29T01:20:59;100165.16;;;24.25;47.53
41513;BME280;27244;59.940;30.280;2023-07-29T01:23:30;100147.72;;;24.18;47.47
41513;BME280;27244;59.940;30.280;2023-07-29T01:25:58;100165.75;;;24.20;47.78
41513;BME280;27244;59.940;30.280;2023-07-29T01:28:26;100162.16;;;24.20;47.89
41513;BME280;27244;59.940;30.280;2023-07-29T01:30:57;100162.78;;;24.24;47.86
41513;BME280;27244;59.940;30.280;2023-07-29T01:33:32;100152.78;;;24.23;48.02
41513;BME280;27244;59.940;30.280;2023-07-29T01:36:03;100156.03;;;24.21;47.89
41513;BME280;27244;59.940;30.280;2023-07-29T01:38:33;100145.25;;;24.20;47.77
41513;BME280;27244;59.940;30.280;2023-07-29T01:41:02;100155.25;;;24.21;47.83
41513;BME280;27244;59.940;30.280;2023-07-29T01:43:32;100162.91;;;24.20;47.84
41513;BME280;27244;59.940;30.280;2023-07-29T01:46:00;100163.41;;;24.19;47.59
41513;BME280;27244;59.940;30.280;2023-07-29T01:48:27;100169.03;;;24.19;47.45
41513;BME280;27244;59.940;30.280;2023-07-29T01:50:56;100175.47;;;24.19;47.34
41513;BME280;27244;59.940;30.280;2023-07-29T01:53:23;100162.28;;;24.16;47.42
41513;BME280;27244;59.940;30.280;2023-07-29T01:55:52;100167.78;;;24.20;47.20
41513;BME280;27244;59.940;30.280;2023-07-29T01:58:19;100165.44;;;24.18;47.20
41513;BME280;27244;59.940;30.280;2023-07-29T02:00:47;100171.50;;;24.17;47.25
41513;BME280;27244;59.940;30.280;2023-07-29T02:03:14;100164.63;;;24.18;47.13
41513;BME280;27244;59.940;30.280;2023-07-29T02:05:41;100161.81;;;24.18;47.53
41513;BME280;27244;59.940;30.280;2023-07-29T02:08:10;100161.03;;;24.17;47.66
41513;BME280;27244;59.940;30.280;2023-07-29T02:10:37;100166.66;;;24.17;47.52
41513;BME280;27244;59.940;30.280;2023-07-29T02:13:06;100166.22;;;24.19;47.47
41513;BME280;27244;59.940;30.280;2023-07-29T02:15:33;100170.75;;;24.16;47.27
41513;BME280;27244;59.940;30.280;2023-07-29T02:18:00;100168.69;;;24.17;47.26
41513;BME280;27244;59.940;30.280;2023-07-29T02:20:27;100177.16;;;24.17;47.26
41513;BME280;27244;59.940;30.280;2023-07-29T02:22:54;100174.34;;;24.17;47.02
41513;BME280;27244;59.940;30.280;2023-07-29T02:25:22;100182.78;;;24.17;46.89
41513;BME280;27244;59.940;30.280;2023-07-29T02:27:49;100170.06;;;24.12;46.91
41513;BME280;27244;59.940;30.280;2023-07-29T02:30:17;100174.66;;;24.19;47.05
41513;BME280;27244;59.940;30.280;2023-07-29T02:32:44;100177.16;;;24.17;47.07
41513;BME280;27244;59.940;30.280;2023-07-29T02:35:12;100183.56;;;24.17;47.21
41513;BME280;27244;59.940;30.280;2023-07-29T02:37:39;100178.06;;;24.14;46.84
41513;BME280;27244;59.940;30.280;2023-07-29T02:40:07;100186.88;;;24.16;47.08
41513;BME280;27244;59.940;30.280;2023-07-29T02:42:35;100182.03;;;24.16;46.98
41513;BME280;27244;59.940;30.280;2023-07-29T02:45:02;100184.06;;;24.16;47.00
41513;BME280;27244;59.940;30.280;2023-07-29T02:47:31;100187.66;;;24.16;46.96
41513;BME280;27244;59.940;30.280;2023-07-29T02:49:58;100186.88;;;24.16;46.94
41513;BME280;27244;59.940;30.280;2023-07-29T02:52:25;100195.31;;;24.16;47.02
41513;BME280;27244;59.940;30.280;2023-07-29T02:54:52;100187.78;;;24.13;47.09
41513;BME280;27244;59.940;30.280;2023-07-29T02:57:19;100183.72;;;24.14;47.23
41513;BME280;27244;59.940;30.280;2023-07-29T02:59:47;100197.00;;;24.13;46.85
41513;BME280;27244;59.940;30.280;2023-07-29T03:02:14;100198.16;;;24.16;47.00
41513;BME280;27244;59.940;30.280;2023-07-29T03:04:43;100198.16;;;24.16;47.21
41513;BME280;27244;59.940;30.280;2023-07-29T03:07:10;100196.22;;;24.13;46.99
41513;BME280;27244;59.940;30.280;2023-07-29T03:09:37;100209.06;;;24.14;47.01
41513;BME280;27244;59.940;30.280;2023-07-29T03:12:05;100212.69;;;24.14;46.84
41513;BME280;27244;59.940;30.280;2023-07-29T03:14:32;100213.13;;;24.13;46.77
41513;BME280;27244;59.940;30.280;2023-07-29T03:17:02;100215.50;;;24.14;47.16
41513;BME280;27244;59.940;30.280;2023-07-29T03:19:29;100201.19;;;24.09;47.07
41513;BME280;27244;59.940;30.280;2023-07-29T03:21:58;100212.69;;;24.14;47.04
41513;BME280;27244;59.940;30.280;2023-07-29T03:24:25;100207.50;;;24.13;46.75
41513;BME280;27244;59.940;30.280;2023-07-29T03:26:52;100203.88;;;24.12;47.02
41513;BME280;27244;59.940;30.280;2023-07-29T03:29:19;100207.50;;;24.13;47.14
41513;BME280;27244;59.940;30.280;2023-07-29T03:31:47;100201.50;;;24.11;46.99
41513;BME280;27244;59.940;30.280;2023-07-29T03:34:14;100203.88;;;24.12;47.01
41513;BME280;27244;59.940;30.280;2023-07-29T03:36:44;100205.47;;;24.13;46.82
41513;BME280;27244;59.940;30.280;2023-07-29T03:39:15;100207.84;;;24.15;46.95
41513;BME280;27244;59.940;30.280;2023-07-29T03:41:42;100205.91;;;24.12;46.90
41513;BME280;27244;59.940;30.280;2023-07-29T03:44:09;100209.06;;;24.14;47.35
41513;BME280;27244;59.940;30.280;2023-07-29T03:46:36;100204.69;;;24.13;46.91
41513;BME280;27244;59.940;30.280;2023-07-29T03:49:06;100203.88;;;24.12;46.73
41513;BME280;27244;59.940;30.280;2023-07-29T03:51:33;100207.94;;;24.11;47.11
41513;BME280;27244;59.940;30.280;2023-07-29T03:54:00;100205.56;;;24.10;46.84
41513;BME280;27244;59.940;30.280;2023-07-29T03:56:28;100210.31;;;24.13;46.82
41513;BME280;27244;59.940;30.280;2023-07-29T03:59:02;100206.25;;;24.14;46.81
41513;BME280;27244;59.940;30.280;2023-07-29T04:01:29;100219.22;;;24.11;46.96
41513;BME280;27244;59.940;30.280;2023-07-29T04:03:56;100203.22;;;24.08;46.93
41513;BME280;27244;59.940;30.280;2023-07-29T04:06:23;100211.19;;;24.10;47.00
41513;BME280;27244;59.940;30.280;2023-07-29T04:08:51;100215.59;;;24.11;47.16
41513;BME280;27244;59.940;30.280;2023-07-29T04:11:18;100213.56;;;24.11;47.17
41513;BME280;27244;59.940;30.280;2023-07-29T04:13:47;100217.31;;;24.08;47.56
41513;BME280;27244;59.940;30.280;2023-07-29T04:16:14;100225.63;;;24.12;47.81
41513;BME280;27244;59.940;30.280;2023-07-29T04:18:42;100229.69;;;24.11;47.65
41513;BME280;27244;59.940;30.280;2023-07-29T04:21:09;100231.28;;;24.12;47.32
41513;BME280;27244;59.940;30.280;2023-07-29T04:23:36;100222.03;;;24.11;47.35
41513;BME280;27244;59.940;30.280;2023-07-29T04:26:04;100222.16;;;24.08;47.26
41513;BME280;27244;59.940;30.280;2023-07-29T04:28:31;100225.63;;;24.12;47.28
41513;BME280;27244;59.940;30.280;2023-07-29T04:31:00;100227.22;;;24.13;47.20
41513;BME280;27244;59.940;30.280;2023-07-29T04:33:29;100217.19;;;24.12;47.31
41513;BME280;27244;59.940;30.280;2023-07-29T04:35:56;100207.16;;;24.11;47.32
41513;BME280;27244;59.940;30.280;2023-07-29T04:38:30;100210.66;;;24.15;47.59
41513;BME280;27244;59.940;30.280;2023-07-29T04:40:58;100211.53;;;24.12;47.51
41513;BME280;27244;59.940;30.280;2023-07-29T04:43:27;100218.41;;;24.11;47.77
41513;BME280;27244;59.940;30.280;2023-07-29T04:45:54;100214.03;;;24.10;47.31
41513;BME280;27244;59.940;30.280;2023-07-29T04:48:22;100217.19;;;24.12;47.56
41513;BME280;27244;59.940;30.280;2023-07-29T04:50:50;100212.78;;;24.11;47.48
41513;BME280;27244;59.940;30.280;2023-07-29T04:53:17;100209.97;;;24.11;47.43
41513;BME280;27244;59.940;30.280;2023-07-29T04:55:44;100219.66;;;24.10;47.46
41513;BME280;27244;59.940;30.280;2023-07-29T04:58:11;100215.59;;;24.11;47.50
41513;BME280;27244;59.940;30.280;2023-07-29T05:00:38;100209.78;;;24.05;47.57
41513;BME280;27244;59.940;30.280;2023-07-29T05:03:05;100226.88;;;24.11;47.49
41513;BME280;27244;59.940;30.280;2023-07-29T05:05:34;100215.94;;;24.13;47.64
41513;BME280;27244;59.940;30.280;2023-07-29T05:08:01;100216.84;;;24.10;47.69
41513;BME280;27244;59.940;30.280;2023-07-29T05:10:28;100205.56;;;24.10;47.98
41513;BME280;27244;59.940;30.280;2023-07-29T05:12:55;100209.19;;;24.10;47.79
41513;BME280;27244;59.940;30.280;2023-07-29T05:15:22;100210.44;;;24.09;47.52
41513;BME280;27244;59.940;30.280;2023-07-29T05:17:50;100210.44;;;24.09;47.52
41513;BME280;27244;59.940;30.280;2023-07-29T05:20:17;100224.84;;;24.11;47.42
41513;BME280;27244;59.940;30.280;2023-07-29T05:22:45;100218.91;;;24.09;47.51
41513;BME280;27244;59.940;30.280;2023-07-29T05:25:12;100214.81;;;24.10;47.31
41513;BME280;27244;59.940;30.280;2023-07-29T05:27:39;100213.25;;;24.09;47.38
41513;BME280;27244;59.940;30.280;2023-07-29T05:30:08;100217.63;;;24.10;47.23
41513;BME280;27244;59.940;30.280;2023-07-29T05:32:35;100209.19;;;24.10;47.24
41513;BME280;27244;59.940;30.280;2023-07-29T05:35:03;100203.22;;;24.08;47.25
41513;BME280;27244;59.940;30.280;2023-07-29T05:37:31;100212.47;;;24.09;47.31
41513;BME280;27244;59.940;30.280;2023-07-29T05:39:59;100215.59;;;24.11;47.39
41513;BME280;27244;59.940;30.280;2023-07-29T05:42:26;100213.25;;;24.09;47.38
41513;BME280;27244;59.940;30.280;2023-07-29T05:44:53;100216.09;;;24.09;47.31
41513;BME280;27244;59.940;30.280;2023-07-29T05:47:21;100213.25;;;24.09;47.40
41513;BME280;27244;59.940;30.280;2023-07-29T05:49:48;100208.22;;;24.04;47.69
41513;BME280;27244;59.940;30.280;2023-07-29T05:52:15;100206.34;;;24.10;47.91
41513;BME280;27244;59.940;30.280;2023-07-29T05:54:42;100202.75;;;24.10;47.57
41513;BME280;27244;59.940;30.280;2023-07-29T05:57:11;100209.19;;;24.10;47.87
41513;BME280;27244;59.940;30.280;2023-07-29T05:59:39;100207.63;;;24.09;48.04
41513;BME280;27244;59.940;30.280;2023-07-29T06:02:06;100211.19;;;24.10;48.05
41513;BME280;27244;59.940;30.280;2023-07-29T06:04:33;100205.56;;;24.10;47.92
41513;BME280;27244;59.940;30.280;2023-07-29T06:07:00;100206.50;;;24.07;47.70
41513;BME280;27244;59.940;30.280;2023-07-29T06:09:27;100206.84;;;24.09;47.95
41513;BME280;27244;59.940;30.280;2023-07-29T06:11:54;100206.84;;;24.09;47.88
41513;BME280;27244;59.940;30.280;2023-07-29T06:14:23;100209.53;;;24.12;47.77
41513;BME280;27244;59.940;30.280;2023-07-29T06:16:50;100199.28;;;24.06;48.13
41513;BME280;27244;59.940;30.280;2023-07-29T06:19:18;100201.19;;;24.09;48.04
41513;BME280;27244;59.940;30.280;2023-07-29T06:21:45;100202.00;;;24.09;47.82
41513;BME280;27244;59.940;30.280;2023-07-29T06:24:12;100185.97;;;24.06;47.79
41513;BME280;27244;59.940;30.280;2023-07-29T06:26:39;100200.72;;;24.10;47.77
41513;BME280;27244;59.940;30.280;2023-07-29T06:29:06;100195.88;;;24.11;47.84
41513;BME280;27244;59.940;30.280;2023-07-29T06:31:35;100196.22;;;24.13;48.16
41513;BME280;27244;59.940;30.280;2023-07-29T06:34:02;100182.38;;;24.06;48.10
41513;BME280;27244;59.940;30.280;2023-07-29T06:36:29;100183.50;;;24.08;48.24
41513;BME280;27244;59.940;30.280;2023-07-29T06:38:56;100177.09;;;24.08;48.12
41513;BME280;27244;59.940;30.280;2023-07-29T06:41:23;100177.38;;;24.10;48.05
41513;BME280;27244;59.940;30.280;2023-07-29T06:43:50;100183.03;;;24.10;48.12
41513;BME280;27244;59.940;30.280;2023-07-29T06:46:17;100167.38;;;24.09;48.69
41513;BME280;27244;59.940;30.280;2023-07-29T06:48:46;100170.66;;;24.07;48.57
41513;BME280;27244;59.940;30.280;2023-07-29T06:51:13;100178.66;;;24.09;48.75
41513;BME280;27244;59.940;30.280;2023-07-29T06:53:40;100184.28;;;24.09;48.84
41513;BME280;27244;59.940;30.280;2023-07-29T06:56:07;100183.03;;;24.10;48.46
41513;BME280;27244;59.940;30.280;2023-07-29T06:58:34;100186.63;;;24.10;48.43
41513;BME280;27244;59.940;30.280;2023-07-29T07:01:01;100179.75;;;24.11;48.54
41513;BME280;27244;59.940;30.280;2023-07-29T07:03:29;100189.00;;;24.12;48.56
41513;BME280;27244;59.940;30.280;2023-07-29T07:05:57;100172.53;;;24.10;48.50
41513;BME280;27244;59.940;30.280;2023-07-29T07:08:24;100175.38;;;24.10;48.43
41513;BME280;27244;59.940;30.280;2023-07-29T07:10:51;100174.91;;;24.12;48.39
41513;BME280;27244;59.940;30.280;2023-07-29T07:13:18;100168.50;;;24.11;48.50
41513;BME280;27244;59.940;30.280;2023-07-29T07:15:45;100160.97;;;24.08;48.50
41513;BME280;27244;59.940;30.280;2023-07-29T07:18:12;100152.97;;;24.07;48.38
41513;BME280;27244;59.940;30.280;2023-07-29T07:20:39;100160.81;;;24.12;48.89
41513;BME280;27244;59.940;30.280;2023-07-29T07:23:08;100162.41;;;24.13;48.52
41513;BME280;27244;59.940;30.280;2023-07-29T07:25:37;100159.59;;;24.13;48.54
41513;BME280;27244;59.940;30.280;2023-07-29T07:28:04;100154.41;;;24.11;48.48
41513;BME280;27244;59.940;30.280;2023-07-29T07:30:31;100159.72;;;24.09;49.18
41513;BME280;27244;59.940;30.280;2023-07-29T07:32:58;100165.66;;;24.11;48.68
41513;BME280;27244;59.940;30.280;2023-07-29T07:35:25;100154.84;;;24.10;48.67
41513;BME280;27244;59.940;30.280;2023-07-29T07:37:52;100153.63;;;24.11;48.68
41513;BME280;27244;59.940;30.280;2023-07-29T07:40:21;100166.00;;;24.13;48.95
41513;BME280;27244;59.940;30.280;2023-07-29T07:42:48;100149.22;;;24.10;49.17
41513;BME280;27244;59.940;30.280;2023-07-29T07:45:26;100159.94;;;24.15;48.94
41513;BME280;27244;59.940;30.280;2023-07-29T07:47:53;100161.28;;;24.10;48.49
41513;BME280;27244;59.940;30.280;2023-07-29T07:50:20;100166.81;;;24.14;48.21
41513;BME280;27244;59.940;30.280;2023-07-29T07:52:49;100153.06;;;24.16;48.20
41513;BME280;27244;59.940;30.280;2023-07-29T07:55:17;100163.41;;;24.19;48.15
41513;BME280;27244;59.940;30.280;2023-07-29T07:57:45;100164.97;;;24.20;48.05
41513;BME280;27244;59.940;30.280;2023-07-29T08:00:13;100167.78;;;24.20;48.42
41513;BME280;27244;59.940;30.280;2023-07-29T08:02:43;100157.75;;;24.19;48.12
41513;BME280;27244;59.940;30.280;2023-07-29T08:05:10;100153.50;;;24.14;48.58
41513;BME280;27244;59.940;30.280;2023-07-29T08:07:37;100147.97;;;24.11;48.77
41513;BME280;27244;59.940;30.280;2023-07-29T08:10:05;100163.84;;;24.17;49.29
41513;BME280;27244;59.940;30.280;2023-07-29T08:12:33;100153.50;;;24.14;49.42
41513;BME280;27244;59.940;30.280;2023-07-29T08:15:01;100153.06;;;24.16;49.57
41513;BME280;27244;59.940;30.280;2023-07-29T08:17:28;100150.47;;;24.09;49.74
41513;BME280;27244;59.940;30.280;2023-07-29T08:19:55;100156.78;;;24.13;49.92
41513;BME280;27244;59.940;30.280;2023-07-29T08:22:22;100159.47;;;24.16;49.98
41513;BME280;27244;59.940;30.280;2023-07-29T08:24:49;100156.97;;;24.18;50.12
41513;BME280;27244;59.940;30.280;2023-07-29T08:27:16;100151.66;;;24.20;49.42
41513;BME280;27244;59.940;30.280;2023-07-29T08:29:44;100150.41;;;24.21;49.56
41513;BME280;27244;59.940;30.280;2023-07-29T08:32:12;100147.44;;;24.25;49.37
41513;BME280;27244;59.940;30.280;2023-07-29T08:34:39;100143.84;;;24.24;48.81
41513;BME280;27244;59.940;30.280;2023-07-29T08:37:06;100147.13;;;24.23;48.86
41513;BME280;27244;59.940;30.280;2023-07-29T08:39:33;100134.59;;;24.24;48.81
41513;BME280;27244;59.940;30.280;2023-07-29T08:42:02;100147.13;;;24.23;49.29
41513;BME280;27244;59.940;30.280;2023-07-29T08:44:35;100145.72;;;24.27;49.39
41513;BME280;27244;59.940;30.280;2023-07-29T08:47:03;100147.59;;;24.21;49.49
41513;BME280;27244;59.940;30.280;2023-07-29T08:49:32;100143.97;;;24.21;48.92
41513;BME280;27244;59.940;30.280;2023-07-29T08:51:59;100155.59;;;24.23;48.81
41513;BME280;27244;59.940;30.280;2023-07-29T08:54:27;100149.97;;;24.23;49.41
41513;BME280;27244;59.940;30.280;2023-07-29T08:56:55;100145.88;;;24.24;49.48
41513;BME280;27244;59.940;30.280;2023-07-29T08:59:22;100150.75;;;24.23;49.39
41513;BME280;27244;59.940;30.280;2023-07-29T09:01:49;100140.72;;;24.22;49.57
41513;BME280;27244;59.940;30.280;2023-07-29T09:04:18;100141.78;;;24.16;49.39
41513;BME280;27244;59.940;30.280;2023-07-29T09:06:49;100150.25;;;24.25;49.18
41513;BME280;27244;59.940;30.280;2023-07-29T09:09:16;100150.69;;;24.45;48.68
41513;BME280;27244;59.940;30.280;2023-07-29T09:11:43;100145.56;;;24.22;49.06
41513;BME280;27244;59.940;30.280;2023-07-29T09:14:11;100141.66;;;24.19;48.91
41513;BME280;27244;59.940;30.280;2023-07-29T09:16:39;100147.72;;;24.18;48.99
41513;BME280;27244;59.940;30.280;2023-07-29T09:19:06;100143.47;;;24.13;48.82
41513;BME280;27244;59.940;30.280;2023-07-29T09:21:33;100138.97;;;24.16;48.58
41513;BME280;27244;59.940;30.280;2023-07-29T09:24:04;100136.47;;;24.18;48.52
41513;BME280;27244;59.940;30.280;2023-07-29T09:26:33;100140.19;;;24.15;48.58
41513;BME280;27244;59.940;30.280;2023-07-29T09:29:00;100144.13;;;24.17;48.52
41513;BME280;27244;59.940;30.280;2023-07-29T09:31:28;100143.34;;;24.17;48.27
41513;BME280;27244;59.940;30.280;2023-07-29T09:33:56;100139.28;;;24.18;48.13
41513;BME280;27244;59.940;30.280;2023-07-29T09:36:25;100145.69;;;24.18;48.28
41513;BME280;27244;59.940;30.280;2023-07-29T09:38:53;100151.78;;;24.17;48.44
41513;BME280;27244;59.940;30.280;2023-07-29T09:41:23;100144.78;;;24.21;48.23
41513;BME280;27244;59.940;30.280;2023-07-29T09:43:55;100139.13;;;24.21;47.97
41513;BME280;27244;59.940;30.280;2023-07-29T09:46:24;100138.50;;;24.17;48.16
41513;BME280;27244;59.940;30.280;2023-07-29T09:48:53;100137.69;;;24.17;48.16
41513;BME280;27244;59.940;30.280;2023-07-29T09:51:21;100141.88;;;24.12;48.04
41513;BME280;27244;59.940;30.280;2023-07-29T09:53:50;100144.91;;;24.18;47.84
41513;BME280;27244;59.940;30.280;2023-07-29T09:56:17;100144.59;;;24.16;47.67
41513;BME280;27244;59.940;30.280;2023-07-29T09:58:47;100136.00;;;24.19;47.84
41513;BME280;27244;59.940;30.280;2023-07-29T10:01:15;100134.56;;;24.15;47.22
41513;BME280;27244;59.940;30.280;2023-07-29T10:03:42;100145.84;;;24.15;47.32
41513;BME280;27244;59.940;30.280;2023-07-29T10:06:11;100148.66;;;24.15;47.42
41513;BME280;27244;59.940;30.280;2023-07-29T10:08:39;100149.09;;;24.13;47.37
41513;BME280;27244;59.940;30.280;2023-07-29T10:11:07;100155.53;;;24.14;47.01
41513;BME280;27244;59.940;30.280;2023-07-29T10:13:34;100159.59;;;24.13;47.07
41513;BME280;27244;59.940;30.280;2023-07-29T10:16:04;100157.91;;;24.15;47.06
41513;BME280;27244;59.940;30.280;2023-07-29T10:18:32;100153.94;;;24.13;47.17
41513;BME280;27244;59.940;30.280;2023-07-29T10:21:01;100157.22;;;24.11;47.31
41513;BME280;27244;59.940;30.280;2023-07-29T10:23:42;100162.03;;;24.23;47.19
41513;BME280;27244;59.940;30.280;2023-07-29T10:26:10;100156.91;;;24.40;47.06
41513;BME280;27244;59.940;30.280;2023-07-29T10:28:40;100156.66;;;24.16;47.24
41513;BME280;27244;59.940;30.280;2023-07-29T10:31:09;100154.59;;;24.17;47.16
41513;BME280;27244;59.940;30.280;2023-07-29T10:33:37;100153.94;;;24.13;47.88
41513;BME280;27244;59.940;30.280;2023-07-29T10:36:05;100141.88;;;24.12;47.97
41513;BME280;27244;59.940;30.280;2023-07-29T10:38:32;100147.53;;;24.12;48.01
41513;BME280;27244;59.940;30.280;2023-07-29T10:41:00;100148.97;;;24.17;48.27
41513;BME280;27244;59.940;30.280;2023-07-29T10:43:32;100140.72;;;24.22;48.77
41513;BME280;27244;59.940;30.280;2023-07-29T10:46:16;100149.53;;;24.33;49.21
41513;BME280;27244;59.940;30.280;2023-07-29T10:48:52;100150.31;;;24.34;49.87
41513;BME280;27244;59.940;30.280;2023-07-29T10:51:24;100127.69;;;24.16;49.82
41513;BME280;27244;59.940;30.280;2023-07-29T10:53:53;100145.63;;;24.31;50.09
41513;BME280;27244;59.940;30.280;2023-07-29T10:56:36;100144.72;;;24.43;49.65
41513;BME280;27244;59.940;30.280;2023-07-29T11:02:02;100138.91;;;24.37;50.02
41513;BME280;27244;59.940;30.280;2023-07-29T11:04:46;100139.06;;;24.43;49.49
41513;BME280;27244;59.940;30.280;2023-07-29T11:07:24;100141.59;;;24.41;50.27
41513;BME280;27244;59.940;30.280;2023-07-29T11:09:59;100136.41;;;24.39;50.73
41513;BME280;27244;59.940;30.280;2023-07-29T11:12:37;100141.75;;;24.46;51.15
41513;BME280;27244;59.940;30.280;2023-07-29T11:15:12;100147.38;;;24.46;51.51
41513;BME280;27244;59.940;30.280;2023-07-29T11:17:42;100142.69;;;24.43;52.03
41513;BME280;27244;59.940;30.280;2023-07-29T11:20:11;100148.78;;;24.42;52.19
41513;BME280;27244;59.940;30.280;2023-07-29T11:22:39;100134.69;;;24.42;51.89
41513;BME280;27244;59.940;30.280;2023-07-29T11:25:08;100145.50;;;24.43;52.29
41513;BME280;27244;59.940;30.280;2023-07-29T11:27:35;100142.38;;;24.41;52.72
41513;BME280;27244;59.940;30.280;2023-07-29T11:30:04;100132.66;;;24.42;53.11
41513;BME280;27244;59.940;30.280;2023-07-29T11:32:32;100130.16;;;24.44;52.76
41513;BME280;27244;59.940;30.280;2023-07-29T11:35:06;100139.13;;;24.52;52.39
41513;BME280;27244;59.940;30.280;2023-07-29T11:37:34;100135.31;;;24.46;52.15
41513;BME280;27244;59.940;30.280;2023-07-29T11:40:01;100132.97;;;24.44;51.61
41513;BME280;27244;59.940;30.280;2023-07-29T11:42:32;100145.22;;;24.50;51.63
41513;BME280;27244;59.940;30.280;2023-07-29T11:44:59;100126.88;;;24.46;52.06
41513;BME280;27244;59.940;30.280;2023-07-29T11:47:27;100133.28;;;24.46;51.81
41513;BME280;27244;59.940;30.280;2023-07-29T11:49:54;100128.44;;;24.47;51.95
41513;BME280;27244;59.940;30.280;2023-07-29T11:52:22;100138.00;;;24.49;51.84
41513;BME280;27244;59.940;30.280;2023-07-29T11:54:50;100132.50;;;24.46;51.64
41513;BME280;27244;59.940;30.280;2023-07-29T11:57:17;100131.25;;;24.47;51.57
41513;BME280;27244;59.940;30.280;2023-07-29T11:59:45;100129.22;;;24.47;51.19
41513;BME280;27244;59.940;30.280;2023-07-29T12:02:15;100130.94;;;24.45;50.98
41513;BME280;27244;59.940;30.280;2023-07-29T12:04:44;100134.09;;;24.47;50.94
41513;BME280;27244;59.940;30.280;2023-07-29T12:07:12;100131.41;;;24.43;50.78
41513;BME280;27244;59.940;30.280;2023-07-29T12:09:42;100132.84;;;24.48;50.54
41513;BME280;27244;59.940;30.280;2023-07-29T12:12:09;100146.94;;;24.48;50.53
41513;BME280;27244;59.940;30.280;2023-07-29T12:14:36;100135.66;;;24.48;50.38
41513;BME280;27244;59.940;30.280;2023-07-29T12:17:04;100148.19;;;24.47;50.56
41513;BME280;27244;59.940;30.280;2023-07-29T12:19:32;100138.13;;;24.46;50.72
41513;BME280;27244;59.940;30.280;2023-07-29T12:22:01;100152.56;;;24.48;50.57
41513;BME280;27244;59.940;30.280;2023-07-29T12:24:29;100154.13;;;24.49;50.51
41513;BME280;27244;59.940;30.280;2023-07-29T12:26:58;100155.69;;;24.50;50.35
41513;BME280;27244;59.940;30.280;2023-07-29T12:29:25;100154.91;;;24.49;50.41
41513;BME280;27244;59.940;30.280;2023-07-29T12:31:58;100149.47;;;24.55;50.58
41513;BME280;27244;59.940;30.280;2023-07-29T12:34:26;100145.22;;;24.50;50.79
41513;BME280;27244;59.940;30.280;2023-07-29T12:36:54;100144.44;;;24.50;50.92
41513;BME280;27244;59.940;30.280;2023-07-29T12:39:23;100146.78;;;24.52;50.55
41513;BME280;27244;59.940;30.280;2023-07-29T12:41:53;100147.88;;;24.54;50.71
41513;BME280;27244;59.940;30.280;2023-07-29T12:44:23;100150.72;;;24.54;50.96
41513;BME280;27244;59.940;30.280;2023-07-29T12:46:50;100139.72;;;24.47;51.07
41513;BME280;27244;59.940;30.280;2023-07-29T12:49:18;100136.44;;;24.48;51.34